createdAt,value
2022-11-15T00:01:54.594Z,100.00
2022-11-15T00:04:45.993Z,100.00
2022-11-15T00:07:54.740Z,98.83
2022-11-15T00:10:44.093Z,96.19
2022-11-15T00:13:33.779Z,96.23
2022-11-15T00:16:23.132Z,98.30
2022-11-15T00:19:12.548Z,100.00
2022-11-15T00:22:04.262Z,100.00
2022-11-15T00:24:53.436Z,100.00
2022-11-15T00:27:43.477Z,100.00
2022-11-15T00:30:32.863Z,100.00
2022-11-15T00:33:22.017Z,97.79
2022-11-15T00:36:13.611Z,95.63
2022-11-15T00:39:05.127Z,96.93
2022-11-15T00:41:54.461Z,100.00
2022-11-15T00:44:43.315Z,100.00
2022-11-15T00:47:35.144Z,100.00
2022-11-15T00:50:24.246Z,100.00
2022-11-15T00:53:13.337Z,100.00
2022-11-15T00:56:05.641Z,100.00
2022-11-15T00:58:54.850Z,98.89
2022-11-15T01:01:43.900Z,96.74
2022-11-15T01:04:33.165Z,97.70
2022-11-15T01:07:22.313Z,98.75
2022-11-15T01:10:12.505Z,99.77
2022-11-15T01:13:04.384Z,100.00
2022-11-15T01:15:53.604Z,100.00
2022-11-15T01:18:43.444Z,100.00
2022-11-15T01:21:32.760Z,100.00
2022-11-15T01:24:22.265Z,100.00
2022-11-15T01:27:11.327Z,100.00
2022-11-15T01:30:02.967Z,100.00
2022-11-15T01:32:52.092Z,100.00
2022-11-15T01:35:43.923Z,100.00
2022-11-15T01:38:33.144Z,99.10
2022-11-15T01:41:24.629Z,98.00
2022-11-15T01:44:48.535Z,95.00
2022-11-15T01:47:44.753Z,95.70
2022-11-15T01:50:34.955Z,98.23
2022-11-15T01:53:28.036Z,99.91
2022-11-15T01:56:20.844Z,100.00
2022-11-15T01:59:12.235Z,100.00
2022-11-15T02:02:01.816Z,100.00
2022-11-15T02:04:53.536Z,100.00
2022-11-15T02:07:42.680Z,100.00
2022-11-15T02:10:32.508Z,100.00
2022-11-15T02:13:22.160Z,100.00
2022-11-15T02:16:38.464Z,100.00
2022-11-15T02:19:53.149Z,100.00
2022-11-15T02:22:55.768Z,100.00
2022-11-15T02:25:59.154Z,100.00
2022-11-15T02:29:02.625Z,100.00
2022-11-15T02:32:00.236Z,100.00
2022-11-15T02:34:58.952Z,100.00
2022-11-15T02:37:55.744Z,100.00
2022-11-15T02:40:50.497Z,100.00
2022-11-15T02:44:01.324Z,100.00
2022-11-15T02:47:09.866Z,100.00
2022-11-15T02:50:02.866Z,99.37
2022-11-15T02:52:53.347Z,98.99
2022-11-15T02:55:45.899Z,98.42
2022-11-15T02:58:56.263Z,97.75
2022-11-15T03:01:59.272Z,97.65
2022-11-15T03:04:58.274Z,97.25
2022-11-15T03:08:00.902Z,97.05
2022-11-15T03:11:00.763Z,96.32
2022-11-15T03:13:57.303Z,96.17
2022-11-15T03:16:53.202Z,96.23
2022-11-15T03:19:48.307Z,95.89
2022-11-15T03:22:45.674Z,95.49
2022-11-15T03:25:36.787Z,95.38
2022-11-15T03:28:32.022Z,95.55
2022-11-15T03:31:38.278Z,95.54
2022-11-15T03:34:33.039Z,95.12
2022-11-15T03:37:24.681Z,95.02
2022-11-15T03:40:17.182Z,95.05
2022-11-15T03:43:12.685Z,94.48
2022-11-15T03:46:07.538Z,94.58
2022-11-15T03:49:03.460Z,94.43
2022-11-15T03:51:52.933Z,94.23
2022-11-15T03:54:52.375Z,94.13
2022-11-15T03:57:43.727Z,94.10
2022-11-15T04:00:33.118Z,94.00
2022-11-15T04:03:22.105Z,93.87
2022-11-15T04:06:11.506Z,93.44
2022-11-15T04:09:00.851Z,93.34
2022-11-15T04:11:50.105Z,93.17
2022-11-15T04:15:02.070Z,93.22
2022-11-15T04:17:53.176Z,93.28
2022-11-15T04:20:54.665Z,93.29
2022-11-15T04:23:55.951Z,93.27
2022-11-15T04:26:45.396Z,93.17
2022-11-15T04:29:40.583Z,92.87
2022-11-15T04:32:32.098Z,92.97
2022-11-15T04:35:21.268Z,92.64
2022-11-15T04:38:12.717Z,92.64
2022-11-15T04:41:01.591Z,92.61
2022-11-15T04:43:50.564Z,92.16
2022-11-15T04:46:40.005Z,92.05
2022-11-15T04:49:31.547Z,91.97
2022-11-15T04:52:20.372Z,92.09
2022-11-15T04:55:10.413Z,92.16
2022-11-15T04:58:02.954Z,91.67
2022-11-15T05:00:52.036Z,91.61
2022-11-15T05:03:53.569Z,91.94
2022-11-15T05:06:45.465Z,91.95
2022-11-15T05:09:34.512Z,91.95
2022-11-15T05:12:23.715Z,91.70
2022-11-15T05:15:13.636Z,91.56
2022-11-15T05:18:03.577Z,91.97
2022-11-15T05:20:52.622Z,91.76
2022-11-15T05:23:45.051Z,91.91
2022-11-15T05:26:34.138Z,92.03
2022-11-15T05:29:26.500Z,92.36
2022-11-15T05:32:16.269Z,92.39
2022-11-15T05:35:05.598Z,91.97
2022-11-15T05:37:54.736Z,91.84
2022-11-15T05:40:46.568Z,91.89
2022-11-15T05:43:39.644Z,91.73
2022-11-15T05:46:28.919Z,91.79
2022-11-15T05:49:23.098Z,91.72
2022-11-15T05:52:15.497Z,91.51
2022-11-15T05:55:07.039Z,91.36
2022-11-15T05:57:58.734Z,91.60
2022-11-15T06:00:47.511Z,91.47
2022-11-15T06:03:36.709Z,91.33
2022-11-15T06:06:25.745Z,91.30
2022-11-15T06:09:14.639Z,91.45
2022-11-15T06:12:03.697Z,91.09
2022-11-15T06:14:55.196Z,91.36
2022-11-15T06:17:44.412Z,91.43
2022-11-15T06:20:33.965Z,91.41
2022-11-15T06:23:22.932Z,91.09
2022-11-15T06:26:11.886Z,91.10
2022-11-15T06:29:01.252Z,91.52
2022-11-15T06:31:53.860Z,91.08
2022-11-15T06:34:43.112Z,91.22
2022-11-15T06:37:33.954Z,91.64
2022-11-15T06:40:22.913Z,91.62
2022-11-15T06:43:11.852Z,91.60
2022-11-15T06:46:02.235Z,91.27
2022-11-15T06:48:54.767Z,90.95
2022-11-15T06:51:43.647Z,90.63
2022-11-15T06:54:32.604Z,90.02
2022-11-15T06:57:21.495Z,90.09
2022-11-15T07:00:12.506Z,89.70
2022-11-15T07:03:04.472Z,89.11
2022-11-15T07:06:06.826Z,89.04
2022-11-15T07:08:56.592Z,89.49
2022-11-15T07:11:45.586Z,89.22
2022-11-15T07:14:34.514Z,88.86
2022-11-15T07:17:23.534Z,88.94
2022-11-15T07:20:14.456Z,88.91
2022-11-15T07:23:08.008Z,88.97
2022-11-15T07:25:56.962Z,88.62
2022-11-15T07:28:45.967Z,88.66
2022-11-15T07:31:34.888Z,88.65
2022-11-15T07:34:24.882Z,88.44
2022-11-15T07:37:14.987Z,88.39
2022-11-15T07:40:07.168Z,88.18
2022-11-15T07:42:59.499Z,88.29
2022-11-15T07:45:50.790Z,88.46
2022-11-15T07:48:44.851Z,88.13
2022-11-15T07:51:34.330Z,88.07
2022-11-15T07:54:23.334Z,87.95
2022-11-15T07:57:14.899Z,87.56
2022-11-15T08:00:04.428Z,87.60
2022-11-15T08:02:53.417Z,87.61
2022-11-15T08:05:43.664Z,87.05
2022-11-15T08:08:32.979Z,87.38
2022-11-15T08:11:22.362Z,87.11
2022-11-15T08:14:14.210Z,87.28
2022-11-15T08:17:03.320Z,86.92
2022-11-15T08:19:52.234Z,86.61
2022-11-15T08:22:41.478Z,85.84
2022-11-15T08:25:32.089Z,85.96
2022-11-15T08:28:22.165Z,85.72
2022-11-15T08:31:18.002Z,85.42
2022-11-15T08:34:07.151Z,85.63
2022-11-15T08:36:56.341Z,85.42
2022-11-15T08:39:45.513Z,85.48
2022-11-15T08:42:34.505Z,85.31
2022-11-15T08:45:23.411Z,85.51
2022-11-15T08:48:15.237Z,85.51
2022-11-15T08:51:04.452Z,85.39
2022-11-15T08:53:53.400Z,85.44
2022-11-15T08:56:42.757Z,85.05
2022-11-15T08:59:32.084Z,85.21
2022-11-15T09:02:21.779Z,84.75
2022-11-15T09:05:13.579Z,84.01
2022-11-15T09:08:18.788Z,84.23
2022-11-15T09:11:13.772Z,83.84
2022-11-15T09:14:03.042Z,84.02
2022-11-15T09:16:51.842Z,83.84
2022-11-15T09:19:41.192Z,83.72
2022-11-15T09:22:32.823Z,83.63
2022-11-15T09:25:22.023Z,83.94
2022-11-15T09:28:12.190Z,83.99
2022-11-15T09:31:02.670Z,83.48
2022-11-15T09:33:51.610Z,83.46
2022-11-15T09:36:40.837Z,83.56
2022-11-15T09:39:32.748Z,83.41
2022-11-15T09:42:48.875Z,82.85
2022-11-15T09:45:46.922Z,82.99
2022-11-15T09:48:54.163Z,82.49
2022-11-15T09:51:51.146Z,82.34
2022-11-15T09:57:27.271Z,82.14
2022-11-15T10:00:31.348Z,82.14
2022-11-15T10:03:18.158Z,82.18
2022-11-15T10:05:51.216Z,82.30
2022-11-15T10:08:36.144Z,82.22
2022-11-15T10:11:36.265Z,82.14
2022-11-15T10:14:07.270Z,82.17
2022-11-15T10:17:09.934Z,81.90
2022-11-15T10:19:49.835Z,81.61
2022-11-15T10:22:39.386Z,81.35
2022-11-15T10:25:23.577Z,81.56
2022-11-15T10:28:08.372Z,81.50
2022-11-15T10:30:43.563Z,81.55
2022-11-15T10:33:35.020Z,81.22
2022-11-15T10:36:26.731Z,81.34
2022-11-15T10:39:01.839Z,81.25
2022-11-15T10:41:49.696Z,81.08
2022-11-15T10:44:29.665Z,81.21
2022-11-15T10:47:32.468Z,80.77
2022-11-15T10:50:10.601Z,80.74
2022-11-15T10:52:49.440Z,80.55
2022-11-15T10:55:28.901Z,80.79
2022-11-15T10:58:05.421Z,80.60
2022-11-15T11:00:39.788Z,80.15
2022-11-15T11:03:32.684Z,80.31
2022-11-15T11:06:12.203Z,80.43
2022-11-15T11:08:43.349Z,80.19
2022-11-15T11:11:13.762Z,79.97
2022-11-15T11:13:44.197Z,79.48
2022-11-15T11:16:36.256Z,79.87
2022-11-15T11:19:22.983Z,79.70
2022-11-15T11:22:04.158Z,79.74
2022-11-15T11:24:40.709Z,79.55
2022-11-15T11:27:31.139Z,79.36
2022-11-15T11:30:10.411Z,79.05
2022-11-15T11:33:14.799Z,78.55
2022-11-15T11:35:57.083Z,78.66
2022-11-15T11:38:55.972Z,78.85
2022-11-15T11:41:47.016Z,78.21
2022-11-15T11:44:33.380Z,78.24
2022-11-15T11:47:05.145Z,78.25
2022-11-15T11:49:42.260Z,78.25
2022-11-15T11:52:20.589Z,78.25
2022-11-15T11:54:59.759Z,78.03
2022-11-15T11:57:38.866Z,77.82
2022-11-15T12:00:21.252Z,77.52
2022-11-15T12:03:05.512Z,77.62
2022-11-15T12:05:41.526Z,77.89
2022-11-15T12:08:27.801Z,77.36
2022-11-15T12:11:05.004Z,77.69
2022-11-15T12:13:38.012Z,77.59
2022-11-15T12:16:15.960Z,77.34
2022-11-15T12:18:51.476Z,77.45
2022-11-15T12:21:28.745Z,77.49
2022-11-15T12:24:07.103Z,77.46
2022-11-15T12:26:42.484Z,77.86
2022-11-15T12:29:19.257Z,77.57
2022-11-15T12:31:53.924Z,77.56
2022-11-15T12:34:42.123Z,77.69
2022-11-15T12:37:38.888Z,77.12
2022-11-15T12:40:24.045Z,77.16
2022-11-15T12:43:43.141Z,77.16
2022-11-15T12:46:27.124Z,77.19
2022-11-15T12:49:00.680Z,77.36
2022-11-15T12:52:12.457Z,77.39
2022-11-15T12:54:59.026Z,76.90
2022-11-15T12:57:38.051Z,77.15
2022-11-15T13:00:42.079Z,77.20
2022-11-15T13:03:31.365Z,77.30
2022-11-15T13:06:14.115Z,77.30
2022-11-15T13:08:53.925Z,76.99
2022-11-15T13:11:49.971Z,77.08
2022-11-15T13:14:45.110Z,76.81
2022-11-15T13:17:34.989Z,76.65
2022-11-15T13:20:21.179Z,76.67
2022-11-15T13:22:57.546Z,76.72
2022-11-15T13:25:52.034Z,76.76
2022-11-15T13:28:32.170Z,76.87
2022-11-15T13:31:05.056Z,76.97
2022-11-15T13:33:41.019Z,77.26
2022-11-15T13:36:17.610Z,77.43
2022-11-15T13:38:48.502Z,77.63
2022-11-15T13:41:24.199Z,77.60
2022-11-15T13:43:56.081Z,77.83
2022-11-15T13:46:28.421Z,77.96
2022-11-15T13:49:03.519Z,77.97
2022-11-15T13:51:41.451Z,77.88
2022-11-15T13:54:20.464Z,77.92
2022-11-15T13:56:56.958Z,77.71
2022-11-15T13:59:30.215Z,77.70
2022-11-15T14:02:05.397Z,77.66
2022-11-15T14:04:39.063Z,77.61
2022-11-15T14:07:09.609Z,77.55
2022-11-15T14:09:42.390Z,77.54
2022-11-15T14:12:33.170Z,77.67
2022-11-15T14:15:05.901Z,77.95
2022-11-15T14:17:45.628Z,77.89
2022-11-15T14:20:33.136Z,77.90
2022-11-15T14:23:04.985Z,78.16
2022-11-15T14:25:36.377Z,77.83
2022-11-15T14:28:19.764Z,78.07
2022-11-15T14:30:51.446Z,78.00
2022-11-15T14:33:25.736Z,77.92
2022-11-15T14:35:59.901Z,78.04
2022-11-15T14:38:30.992Z,78.15
2022-11-15T14:41:01.673Z,77.65
2022-11-15T14:43:32.279Z,78.04
2022-11-15T14:46:02.786Z,78.06
2022-11-15T14:48:33.786Z,78.30
2022-11-15T14:51:07.634Z,78.06
2022-11-15T14:53:38.135Z,78.36
2022-11-15T14:56:08.745Z,78.18
2022-11-15T14:58:39.350Z,78.39
2022-11-15T15:01:16.761Z,78.40
2022-11-15T15:03:48.090Z,78.24
2022-11-15T15:06:21.293Z,78.46
2022-11-15T15:08:52.218Z,78.45
2022-11-15T15:11:27.221Z,78.65
2022-11-15T15:13:59.454Z,78.51
2022-11-15T15:16:29.996Z,78.44
2022-11-15T15:19:00.586Z,78.41
2022-11-15T15:21:37.151Z,78.71
2022-11-15T15:24:08.411Z,78.83
2022-11-15T15:26:40.160Z,78.94
2022-11-15T15:29:10.689Z,78.95
2022-11-15T15:31:41.443Z,79.07
2022-11-15T15:34:16.633Z,79.00
2022-11-15T15:36:50.261Z,79.18
2022-11-15T15:39:20.811Z,79.35
2022-11-15T15:41:54.870Z,79.25
2022-11-15T15:44:28.350Z,79.17
2022-11-15T15:46:59.096Z,79.37
2022-11-15T15:49:29.734Z,79.39
2022-11-15T15:52:03.034Z,79.52
2022-11-15T15:54:33.605Z,79.80
2022-11-15T15:57:04.341Z,79.78
2022-11-15T15:59:35.709Z,80.20
2022-11-15T16:02:06.780Z,80.35
2022-11-15T16:04:37.305Z,80.39
2022-11-15T16:07:19.737Z,80.27
2022-11-15T16:10:05.474Z,80.00
2022-11-15T16:12:37.580Z,80.06
2022-11-15T16:15:08.768Z,80.29
2022-11-15T16:17:43.352Z,80.49
2022-11-15T16:20:35.162Z,80.83
2022-11-15T16:23:10.698Z,80.66
2022-11-15T16:25:42.558Z,81.05
2022-11-15T16:28:24.417Z,80.68
2022-11-15T16:31:04.617Z,80.71
2022-11-15T16:33:35.953Z,80.36
2022-11-15T16:36:07.557Z,80.81
2022-11-15T16:38:40.628Z,80.76
2022-11-15T16:41:11.301Z,80.86
2022-11-15T16:43:41.784Z,81.12
2022-11-15T16:46:18.379Z,81.14
2022-11-15T16:48:49.218Z,81.21
2022-11-15T16:51:20.154Z,81.28
2022-11-15T16:53:53.554Z,81.07
2022-11-15T16:56:28.541Z,80.87
2022-11-15T16:59:00.742Z,81.02
2022-11-15T17:01:33.631Z,81.20
2022-11-15T17:04:13.104Z,81.54
2022-11-15T17:06:44.633Z,81.38
2022-11-15T17:09:19.012Z,81.56
2022-11-15T17:11:50.168Z,81.77
2022-11-15T17:14:21.912Z,81.98
2022-11-15T17:16:52.460Z,81.53
2022-11-15T17:19:24.564Z,81.41
2022-11-15T17:21:55.140Z,81.35
2022-11-15T17:24:28.220Z,81.85
2022-11-15T17:26:58.658Z,81.62
2022-11-15T17:29:29.110Z,81.86
2022-11-15T17:31:59.675Z,82.12
2022-11-15T17:34:30.211Z,81.94
2022-11-15T17:37:00.709Z,81.86
2022-11-15T17:39:33.777Z,81.70
2022-11-15T17:42:04.421Z,81.65
2022-11-15T17:44:35.274Z,81.42
2022-11-15T17:47:05.891Z,81.67
2022-11-15T17:49:39.626Z,82.01
2022-11-15T17:52:10.708Z,82.35
2022-11-15T17:54:44.023Z,82.61
2022-11-15T17:57:14.537Z,82.60
2022-11-15T17:59:45.038Z,82.61
2022-11-15T18:02:15.970Z,82.30
2022-11-15T18:04:46.640Z,82.60
2022-11-15T18:07:17.079Z,82.79
2022-11-15T18:09:50.166Z,82.56
2022-11-15T18:12:20.565Z,82.94
2022-11-15T18:14:51.076Z,82.73
2022-11-15T18:17:21.584Z,82.89
2022-11-15T18:19:52.149Z,82.60
2022-11-15T18:22:23.676Z,82.84
2022-11-15T18:24:56.705Z,82.97
2022-11-15T18:27:27.302Z,82.56
2022-11-15T18:29:57.811Z,82.44
2022-11-15T18:32:29.120Z,82.62
2022-11-15T18:34:59.634Z,82.54
2022-11-15T18:37:30.316Z,82.38
2022-11-15T18:40:04.059Z,82.22
2022-11-15T18:42:34.841Z,82.10
2022-11-15T18:45:05.450Z,81.93
2022-11-15T18:47:37.824Z,82.01
2022-11-15T18:50:09.160Z,81.42
2022-11-15T18:52:39.813Z,78.58
2022-11-15T18:55:14.636Z,75.97
2022-11-15T18:57:45.371Z,74.86
2022-11-15T19:00:17.539Z,77.35
2022-11-15T19:02:48.206Z,81.44
2022-11-15T19:05:21.551Z,84.12
2022-11-15T19:07:52.105Z,86.46
2022-11-15T19:10:25.272Z,88.38
2022-11-15T19:12:55.834Z,89.61
2022-11-15T19:15:26.384Z,90.53
2022-11-15T19:17:57.847Z,89.88
2022-11-15T19:20:28.517Z,89.75
2022-11-15T19:22:59.103Z,90.01
2022-11-15T19:25:32.345Z,89.43
2022-11-15T19:28:02.829Z,89.73
2022-11-15T19:30:33.387Z,90.64
2022-11-15T19:33:03.845Z,89.60
2022-11-15T19:35:34.504Z,90.58
2022-11-15T19:38:05.092Z,90.43
2022-11-15T19:40:39.080Z,90.02
2022-11-15T19:43:10.417Z,89.70
2022-11-15T19:45:40.955Z,89.15
2022-11-15T19:48:11.449Z,87.65
2022-11-15T19:50:42.276Z,86.92
2022-11-15T19:53:12.826Z,87.92
2022-11-15T19:55:56.115Z,89.54
2022-11-15T19:58:28.300Z,90.87
2022-11-15T20:01:03.994Z,88.23
2022-11-15T20:03:36.117Z,88.54
2022-11-15T20:06:08.797Z,89.65
2022-11-15T20:08:39.636Z,88.32
2022-11-15T20:11:12.977Z,90.11
2022-11-15T20:13:44.526Z,90.55
2022-11-15T20:16:19.410Z,91.67
2022-11-15T20:18:50.667Z,91.94
2022-11-15T20:21:21.769Z,91.44
2022-11-15T20:23:53.238Z,91.54
2022-11-15T20:26:26.706Z,93.44
2022-11-15T20:29:01.366Z,95.50
2022-11-15T20:31:32.691Z,95.65
2022-11-15T20:34:03.567Z,93.85
2022-11-15T20:36:34.539Z,91.47
2022-11-15T20:39:05.209Z,88.51
2022-11-15T20:41:38.340Z,89.45
2022-11-15T20:44:08.935Z,90.25
2022-11-15T20:46:39.554Z,91.27
2022-11-15T20:49:10.062Z,90.94
2022-11-15T20:51:41.095Z,91.75
2022-11-15T20:54:11.935Z,91.70
2022-11-15T20:56:45.709Z,95.43
2022-11-15T20:59:16.476Z,98.47
2022-11-15T21:01:48.282Z,97.90
2022-11-15T21:04:18.870Z,97.21
2022-11-15T21:06:49.571Z,96.95
2022-11-15T21:09:32.415Z,96.76
2022-11-15T21:12:14.567Z,92.12
2022-11-15T21:14:49.146Z,88.95
2022-11-15T21:17:19.719Z,96.87
2022-11-15T21:19:50.276Z,97.10
2022-11-15T21:22:20.784Z,94.96
2022-11-15T21:24:51.235Z,94.93
2022-11-15T21:27:24.369Z,95.42
2022-11-15T21:29:55.030Z,94.84
2022-11-15T21:32:25.661Z,95.64
2022-11-15T21:34:56.143Z,94.66
2022-11-15T21:37:26.637Z,100.00
2022-11-15T21:39:57.160Z,100.00
2022-11-15T21:42:30.332Z,97.16
2022-11-15T21:45:00.875Z,96.11
2022-11-15T21:47:31.396Z,96.38
2022-11-15T21:50:01.925Z,96.76
2022-11-15T21:52:33.840Z,96.58
2022-11-15T21:55:04.409Z,96.08
2022-11-15T21:57:37.686Z,94.74
2022-11-15T22:00:21.324Z,93.97
2022-11-15T22:02:51.792Z,94.31
2022-11-15T22:05:22.681Z,93.72
2022-11-15T22:07:53.552Z,93.41
2022-11-15T22:10:24.172Z,93.63
2022-11-15T22:12:57.348Z,94.03
2022-11-15T22:15:28.112Z,94.74
2022-11-15T22:18:01.800Z,95.18
2022-11-15T22:20:48.256Z,97.68
2022-11-15T22:23:19.201Z,100.00
2022-11-15T22:25:50.096Z,100.00
2022-11-15T22:28:24.232Z,99.25
2022-11-15T22:30:57.039Z,99.03
2022-11-15T22:33:30.385Z,98.33
2022-11-15T22:36:01.929Z,97.79
2022-11-15T22:38:47.007Z,97.36
2022-11-15T22:41:17.564Z,96.56
2022-11-15T22:43:51.268Z,96.46
2022-11-15T22:46:22.128Z,96.04
2022-11-15T22:48:52.698Z,95.71
2022-11-15T22:51:23.609Z,95.28
2022-11-15T22:53:54.450Z,94.85
2022-11-15T22:56:25.146Z,94.64
2022-11-15T22:58:58.685Z,94.07
2022-11-15T23:01:29.459Z,93.83
2022-11-15T23:04:00.459Z,93.80
2022-11-15T23:06:31.194Z,93.44
2022-11-15T23:09:01.796Z,92.94
2022-11-15T23:11:53.606Z,92.95
2022-11-15T23:14:27.411Z,92.78
2022-11-15T23:16:57.981Z,92.30
2022-11-15T23:19:28.577Z,92.25
2022-11-15T23:22:11.497Z,91.90
2022-11-15T23:24:42.026Z,91.76
2022-11-15T23:27:15.437Z,91.37
2022-11-15T23:30:01.239Z,91.17
2022-11-15T23:32:43.822Z,91.08
2022-11-15T23:35:14.350Z,91.16
2022-11-15T23:37:45.348Z,91.05
2022-11-15T23:40:16.280Z,90.94
2022-11-15T23:42:46.964Z,90.56
2022-11-15T23:45:20.386Z,90.50
2022-11-15T23:47:51.100Z,90.31
2022-11-15T23:50:21.907Z,90.21
2022-11-15T23:52:52.676Z,90.19
2022-11-15T23:55:23.476Z,90.15
2022-11-15T23:57:54.226Z,90.40
